createdAt,value
2018-10-03T00:01:08.160Z,0.90
2018-10-03T00:03:36.994Z,1.30
2018-10-03T00:06:07.231Z,0.70
2018-10-03T00:08:36.079Z,0.73
2018-10-03T00:11:04.932Z,0.93
2018-10-03T00:13:35.224Z,0.83
2018-10-03T00:16:04.058Z,0.93
2018-10-03T00:18:32.918Z,1.10
2018-10-03T00:21:01.786Z,1.00
2018-10-03T00:23:31.121Z,0.80
2018-10-03T00:25:59.944Z,1.00
2018-10-03T00:28:29.096Z,0.90
2018-10-03T00:30:57.933Z,0.97
2018-10-03T00:33:26.755Z,0.70
2018-10-03T00:35:55.618Z,0.77
2018-10-03T00:38:24.955Z,0.80
2018-10-03T00:40:53.782Z,0.80
2018-10-03T00:43:22.923Z,0.97
2018-10-03T00:45:52.125Z,1.13
2018-10-03T00:48:21.183Z,0.90
2018-10-03T00:50:50.536Z,1.43
2018-10-03T00:53:19.362Z,1.10
2018-10-03T00:55:48.515Z,1.00
2018-10-03T00:58:19.459Z,1.00
2018-10-03T01:00:48.305Z,1.10
2018-10-03T01:03:17.134Z,1.13
2018-10-03T01:05:47.331Z,1.00
2018-10-03T01:08:18.140Z,1.10
2018-10-03T01:10:46.984Z,0.93
2018-10-03T01:13:15.815Z,1.00
2018-10-03T01:15:44.708Z,0.90
2018-10-03T01:18:13.543Z,0.70
2018-10-03T01:20:42.471Z,0.83
2018-10-03T01:23:11.311Z,1.37
2018-10-03T01:25:40.595Z,1.13
2018-10-03T01:28:09.431Z,1.50
2018-10-03T01:30:38.719Z,0.90
2018-10-03T01:33:07.935Z,1.17
2018-10-03T01:35:36.775Z,1.00
2018-10-03T01:38:05.767Z,1.40
2018-10-03T01:40:35.005Z,1.03
2018-10-03T01:43:04.953Z,0.80
2018-10-03T01:45:33.887Z,1.10
2018-10-03T01:48:02.703Z,0.97
2018-10-03T01:50:31.530Z,1.10
2018-10-03T01:53:01.596Z,1.07
2018-10-03T01:55:30.789Z,0.90
2018-10-03T01:58:01.231Z,1.00
2018-10-03T02:00:30.051Z,0.87
2018-10-03T02:02:58.903Z,1.20
2018-10-03T02:05:30.152Z,1.10
2018-10-03T02:07:58.980Z,0.90
2018-10-03T02:10:27.819Z,1.23
2018-10-03T02:12:56.691Z,1.10
2018-10-03T02:15:25.916Z,1.23
2018-10-03T02:17:54.884Z,1.30
2018-10-03T02:20:23.724Z,0.90
2018-10-03T02:22:52.584Z,1.40
2018-10-03T02:25:21.490Z,1.00
2018-10-03T02:27:50.636Z,1.43
2018-10-03T02:30:19.979Z,1.07
2018-10-03T02:32:48.805Z,1.23
2018-10-03T02:35:17.690Z,1.00
2018-10-03T02:37:46.515Z,1.10
2018-10-03T02:40:15.351Z,1.07
2018-10-03T02:42:44.432Z,1.10
2018-10-03T02:45:13.595Z,1.30
2018-10-03T02:47:42.427Z,1.30
2018-10-03T02:50:12.835Z,1.20
2018-10-03T02:52:41.933Z,1.17
2018-10-03T02:55:10.823Z,1.13
2018-10-03T02:57:40.729Z,1.23
2018-10-03T03:00:09.643Z,1.03
2018-10-03T03:02:38.629Z,1.40
2018-10-03T03:05:09.054Z,1.50
2018-10-03T03:07:39.039Z,1.27
2018-10-03T03:10:08.095Z,1.43
2018-10-03T03:12:36.945Z,1.53
2018-10-03T03:15:05.800Z,1.97
2018-10-03T03:17:35.347Z,1.00
2018-10-03T03:20:04.219Z,1.57
2018-10-03T03:22:33.043Z,1.20
2018-10-03T03:25:01.892Z,1.17
2018-10-03T03:27:31.113Z,1.10
2018-10-03T03:30:00.320Z,1.20
2018-10-03T03:32:29.143Z,1.40
2018-10-03T03:34:58.022Z,1.20
2018-10-03T03:37:26.870Z,1.10
2018-10-03T03:39:55.812Z,1.23
2018-10-03T03:42:24.994Z,1.20
2018-10-03T03:44:55.566Z,1.17
2018-10-03T03:47:24.387Z,1.37
2018-10-03T03:49:53.622Z,1.40
2018-10-03T03:52:22.471Z,1.30
2018-10-03T03:54:51.291Z,1.27
2018-10-03T03:57:21.695Z,1.10
2018-10-03T03:59:50.893Z,1.20
2018-10-03T04:02:19.895Z,1.43
2018-10-03T04:04:48.791Z,1.10
2018-10-03T04:07:19.914Z,1.17
2018-10-03T04:09:48.751Z,1.47
2018-10-03T04:12:17.583Z,1.30
2018-10-03T04:14:46.673Z,1.30
2018-10-03T04:17:15.480Z,1.17
2018-10-03T04:19:44.418Z,1.67
2018-10-03T04:22:13.244Z,1.27
2018-10-03T04:24:42.067Z,1.23
2018-10-03T04:27:10.895Z,1.13
2018-10-03T04:29:40.138Z,1.80
2018-10-03T04:32:09.547Z,1.40
2018-10-03T04:34:38.379Z,1.43
2018-10-03T04:37:08.859Z,1.30
2018-10-03T04:39:37.692Z,1.23
2018-10-03T04:42:06.745Z,1.50
2018-10-03T04:44:35.490Z,1.50
2018-10-03T04:47:04.336Z,1.77
2018-10-03T04:49:33.256Z,1.17
2018-10-03T04:52:02.137Z,1.50
2018-10-03T04:54:31.351Z,1.23
2018-10-03T04:57:01.826Z,1.50
2018-10-03T04:59:30.702Z,1.30
2018-10-03T05:01:59.630Z,1.50
2018-10-03T05:04:28.509Z,1.50
2018-10-03T05:06:58.821Z,1.60
2018-10-03T05:09:27.643Z,1.40
2018-10-03T05:11:56.475Z,1.37
2018-10-03T05:14:25.569Z,1.60
2018-10-03T05:16:54.379Z,1.57
2018-10-03T05:19:23.342Z,1.50
2018-10-03T05:21:52.210Z,1.63
2018-10-03T05:24:21.035Z,1.37
2018-10-03T05:26:49.866Z,1.60
2018-10-03T05:29:21.031Z,1.30
2018-10-03T05:31:49.858Z,1.20
2018-10-03T05:34:18.692Z,1.50
2018-10-03T05:36:47.655Z,1.57
2018-10-03T05:39:16.486Z,1.40
2018-10-03T05:41:45.433Z,1.40
2018-10-03T05:44:14.269Z,1.70
2018-10-03T05:48:12.396Z,1.67
2018-10-03T05:50:41.502Z,1.63
2018-10-03T05:53:10.715Z,1.70
2018-10-03T05:55:39.595Z,1.60
2018-10-03T05:58:10.423Z,1.90
2018-10-03T06:00:39.667Z,1.60
2018-10-03T06:03:08.522Z,1.60
2018-10-03T06:05:37.408Z,1.50
2018-10-03T06:08:08.651Z,1.50
2018-10-03T06:10:37.484Z,1.60
2018-10-03T06:13:06.435Z,1.70
2018-10-03T06:15:35.272Z,1.50
2018-10-03T06:18:04.102Z,1.70
2018-10-03T06:20:33.032Z,1.63
2018-10-03T06:23:01.871Z,1.53
2018-10-03T06:25:30.719Z,1.50
2018-10-03T06:28:00.801Z,1.50
2018-10-03T06:30:29.997Z,1.67
2018-10-03T06:32:59.035Z,1.60
2018-10-03T06:35:27.903Z,1.83
2018-10-03T06:37:56.744Z,1.53
2018-10-03T06:40:25.716Z,1.47
2018-10-03T06:42:54.499Z,1.50
2018-10-03T06:45:23.327Z,1.60
2018-10-03T06:47:52.159Z,1.80
2018-10-03T06:50:21.019Z,1.40
2018-10-03T06:52:50.240Z,1.50
2018-10-03T06:55:19.092Z,1.60
2018-10-03T06:57:49.341Z,1.50
2018-10-03T07:00:18.201Z,2.07
2018-10-03T07:02:47.031Z,1.83
2018-10-03T07:05:15.921Z,1.60
2018-10-03T07:07:46.932Z,1.13
2018-10-03T07:10:15.763Z,2.00
2018-10-03T07:12:44.608Z,1.50
2018-10-03T07:15:13.764Z,1.23
2018-10-03T07:17:42.599Z,1.70
2018-10-03T07:20:13.244Z,1.80
2018-10-03T07:22:42.030Z,1.53
2018-10-03T07:25:10.859Z,1.67
2018-10-03T07:27:40.103Z,1.50
2018-10-03T07:30:08.953Z,1.80
2018-10-03T07:32:37.925Z,1.60
2018-10-03T07:35:06.811Z,1.50
2018-10-03T07:37:35.670Z,1.30
2018-10-03T07:40:04.818Z,1.40
2018-10-03T07:42:34.081Z,1.30
2018-10-03T07:45:03.263Z,1.40
2018-10-03T07:47:32.678Z,1.67
2018-10-03T07:50:01.560Z,2.00
2018-10-03T07:52:30.448Z,1.70
2018-10-03T07:54:59.259Z,1.50
2018-10-03T07:57:29.932Z,1.40
2018-10-03T07:59:58.791Z,1.60
2018-10-03T08:02:27.674Z,1.50
2018-10-03T08:04:56.774Z,1.80
2018-10-03T08:07:27.736Z,1.50
2018-10-03T08:09:56.623Z,1.83
2018-10-03T08:12:25.421Z,1.70
2018-10-03T08:14:54.295Z,1.47
2018-10-03T08:17:24.515Z,1.33
2018-10-03T08:19:53.308Z,1.63
2018-10-03T08:22:22.140Z,1.30
2018-10-03T08:24:50.991Z,1.67
2018-10-03T08:27:20.540Z,2.77
2018-10-03T08:29:49.484Z,1.60
2018-10-03T08:32:18.779Z,1.60
2018-10-03T08:34:47.545Z,3.03
2018-10-03T08:37:16.411Z,1.90
2018-10-03T08:39:45.716Z,1.60
2018-10-03T08:42:14.706Z,1.80
2018-10-03T08:44:43.600Z,1.60
2018-10-03T08:47:12.628Z,1.50
2018-10-03T08:49:41.486Z,2.70
2018-10-03T08:52:10.325Z,1.73
2018-10-03T08:54:39.231Z,1.83
2018-10-03T08:57:09.151Z,1.80
2018-10-03T08:59:38.990Z,1.33
2018-10-03T09:02:08.119Z,1.57
2018-10-03T09:04:38.711Z,2.10
2018-10-03T09:07:07.548Z,3.13
2018-10-03T09:09:38.009Z,1.60
2018-10-03T09:12:07.258Z,1.93
2018-10-03T09:14:36.091Z,2.43
2018-10-03T09:17:04.967Z,2.63
2018-10-03T09:19:33.804Z,3.10
2018-10-03T09:22:03.287Z,2.33
2018-10-03T09:24:32.205Z,3.07
2018-10-03T09:27:01.060Z,2.47
2018-10-03T09:29:29.903Z,2.33
2018-10-03T09:31:58.730Z,2.23
2018-10-03T09:34:28.310Z,4.30
2018-10-03T09:36:57.466Z,3.03
2018-10-03T09:39:26.348Z,1.83
2018-10-03T09:41:55.122Z,2.30
2018-10-03T09:44:23.981Z,2.73
2018-10-03T09:46:54.759Z,3.67
2018-10-03T09:49:23.587Z,3.00
2018-10-03T09:51:52.427Z,2.83
2018-10-03T09:54:21.267Z,2.50
2018-10-03T09:56:51.145Z,3.47
2018-10-03T09:59:19.971Z,3.70
2018-10-03T10:01:48.818Z,3.27
2018-10-03T10:04:17.671Z,3.60
2018-10-03T10:06:46.519Z,2.27
2018-10-03T10:09:17.236Z,2.57
2018-10-03T10:11:46.160Z,2.80
2018-10-03T10:14:15.022Z,3.33
2018-10-03T10:16:43.892Z,3.97
2018-10-03T10:19:12.734Z,3.67
2018-10-03T10:21:41.979Z,2.67
2018-10-03T10:24:10.818Z,3.27
2018-10-03T10:26:39.680Z,4.03
2018-10-03T10:29:08.511Z,4.43
2018-10-03T10:31:37.679Z,2.77
2018-10-03T10:34:06.899Z,3.53
2018-10-03T10:36:35.722Z,2.87
2018-10-03T10:39:07.694Z,3.60
2018-10-03T10:41:36.787Z,3.03
2018-10-03T10:44:05.444Z,3.23
2018-10-03T10:46:36.125Z,3.40
2018-10-03T10:49:04.954Z,3.23
2018-10-03T10:51:33.804Z,4.93
2018-10-03T10:54:02.642Z,3.23
2018-10-03T10:56:31.491Z,3.10
2018-10-03T10:59:03.236Z,3.50
2018-10-03T11:01:32.143Z,3.93
2018-10-03T11:04:01.036Z,4.70
2018-10-03T11:06:29.930Z,2.53
2018-10-03T11:09:00.210Z,3.00
2018-10-03T11:11:29.435Z,3.80
2018-10-03T11:13:58.236Z,3.37
2018-10-03T11:16:27.074Z,2.20
2018-10-03T11:18:55.916Z,4.50
2018-10-03T11:21:24.850Z,3.80
2018-10-03T11:23:53.806Z,3.77
2018-10-03T11:26:22.547Z,5.43
2018-10-03T11:28:51.383Z,2.57
2018-10-03T11:31:20.275Z,2.67
2018-10-03T11:33:50.043Z,3.97
2018-10-03T11:36:18.888Z,3.60
2018-10-03T11:38:49.780Z,5.20
2018-10-03T11:41:18.615Z,2.57
2018-10-03T11:43:47.504Z,4.83
2018-10-03T11:46:16.342Z,4.93
2018-10-03T11:48:45.171Z,2.10
2018-10-03T11:51:14.437Z,4.70
2018-10-03T11:53:43.278Z,2.60
2018-10-03T11:56:12.120Z,2.33
2018-10-03T11:58:42.349Z,3.93
2018-10-03T12:01:11.959Z,4.63
2018-10-03T12:03:40.793Z,4.33
2018-10-03T12:06:09.649Z,4.13
2018-10-03T12:08:40.163Z,4.27
2018-10-03T12:11:09.055Z,3.73
2018-10-03T12:13:37.892Z,6.00
2018-10-03T12:16:06.757Z,1.80
2018-10-03T12:18:35.595Z,4.33
2018-10-03T12:21:04.711Z,3.53
2018-10-03T12:23:34.426Z,3.57
2018-10-03T12:26:03.230Z,2.67
2018-10-03T12:28:32.062Z,6.00
2018-10-03T12:31:01.683Z,4.60
2018-10-03T12:33:31.551Z,5.20
2018-10-03T12:36:00.359Z,5.30
2018-10-03T12:38:29.195Z,5.10
2018-10-03T12:40:58.051Z,4.47
2018-10-03T12:43:26.876Z,3.90
2018-10-03T12:45:56.269Z,3.83
2018-10-03T12:48:25.111Z,4.63
2018-10-03T12:50:53.947Z,3.93
2018-10-03T12:53:22.774Z,3.67
2018-10-03T12:55:52.357Z,5.43
2018-10-03T12:58:23.377Z,4.07
2018-10-03T13:00:52.200Z,2.50
2018-10-03T13:03:21.032Z,3.50
2018-10-03T13:05:49.878Z,4.23
2018-10-03T13:08:18.722Z,4.27
2018-10-03T13:10:48.975Z,6.43
2018-10-03T13:13:17.951Z,3.87
2018-10-03T13:15:46.879Z,3.20
2018-10-03T13:18:15.775Z,3.50
2018-10-03T13:20:44.851Z,2.97
2018-10-03T13:23:16.078Z,5.17
2018-10-03T13:25:44.908Z,5.13
2018-10-03T13:28:13.748Z,3.27
2018-10-03T13:30:42.689Z,5.00
2018-10-03T13:33:11.476Z,3.60
2018-10-03T13:35:40.404Z,3.17
2018-10-03T13:38:09.376Z,6.97
2018-10-03T13:40:38.498Z,2.90
2018-10-03T13:43:07.323Z,3.70
2018-10-03T13:45:37.332Z,3.27
2018-10-03T13:48:06.965Z,2.83
2018-10-03T13:50:35.831Z,5.17
2018-10-03T13:53:04.855Z,3.00
2018-10-03T13:55:33.800Z,3.97
2018-10-03T13:58:03.638Z,2.63
2018-10-03T14:00:32.477Z,4.63
2018-10-03T14:03:01.323Z,4.27
2018-10-03T14:05:30.201Z,3.43
2018-10-03T14:07:59.050Z,3.87
2018-10-03T14:10:29.585Z,4.80
2018-10-03T14:12:58.416Z,4.17
2018-10-03T14:15:27.246Z,3.60
2018-10-03T14:17:57.008Z,3.40
2018-10-03T14:20:26.150Z,4.33
2018-10-03T14:22:54.980Z,3.33
2018-10-03T14:25:23.826Z,4.77
2018-10-03T14:27:52.658Z,3.77
2018-10-03T14:30:21.937Z,4.20
2018-10-03T14:32:50.812Z,4.43
2018-10-03T14:35:20.057Z,5.43
2018-10-03T14:37:48.887Z,3.30
2018-10-03T14:40:19.274Z,3.50
2018-10-03T14:42:48.744Z,5.27
2018-10-03T14:45:17.963Z,4.40
2018-10-03T14:47:46.815Z,3.77
2018-10-03T14:50:15.643Z,4.77
2018-10-03T14:52:44.468Z,2.60
2018-10-03T14:55:14.103Z,4.17
2018-10-03T14:57:45.391Z,4.07
2018-10-03T15:00:14.308Z,2.53
2018-10-03T15:02:43.161Z,4.53
2018-10-03T15:05:12.791Z,3.33
2018-10-03T15:07:41.636Z,3.07
2018-10-03T15:10:12.294Z,5.07
2018-10-03T15:12:41.211Z,4.27
2018-10-03T15:15:10.039Z,4.40
2018-10-03T15:17:38.976Z,3.50
2018-10-03T15:20:07.891Z,3.00
2018-10-03T15:22:36.976Z,4.70
2018-10-03T15:25:05.866Z,3.43
2018-10-03T15:27:35.675Z,4.10
2018-10-03T15:30:05.263Z,4.80
2018-10-03T15:32:34.578Z,4.70
2018-10-03T15:35:03.774Z,3.37
2018-10-03T15:37:32.629Z,3.40
2018-10-03T15:40:01.475Z,3.87
2018-10-03T15:42:30.314Z,3.93
2018-10-03T15:44:59.141Z,4.17
2018-10-03T15:47:28.043Z,2.63
2018-10-03T15:49:56.872Z,4.63
2018-10-03T15:52:25.962Z,3.70
2018-10-03T15:54:56.356Z,3.87
2018-10-03T15:57:26.552Z,3.90
2018-10-03T15:59:55.452Z,3.53
2018-10-03T16:02:24.327Z,3.10
2018-10-03T16:04:54.331Z,3.53
2018-10-03T16:07:23.166Z,4.07
2018-10-03T16:09:53.873Z,3.20
2018-10-03T16:12:22.712Z,3.40
2018-10-03T16:14:51.804Z,3.07
2018-10-03T16:17:20.870Z,4.17
2018-10-03T16:19:49.692Z,2.83
2018-10-03T16:22:19.030Z,3.83
2018-10-03T16:24:47.896Z,3.53
2018-10-03T16:27:16.795Z,4.60
2018-10-03T16:29:45.655Z,4.30
2018-10-03T16:32:15.129Z,4.27
2018-10-03T16:34:44.944Z,4.23
2018-10-03T16:37:13.766Z,5.37
2018-10-03T16:39:42.625Z,3.13
2018-10-03T16:42:11.453Z,4.17
2018-10-03T16:44:40.284Z,2.50
2018-10-03T16:47:10.135Z,5.23
2018-10-03T16:49:38.974Z,4.10
2018-10-03T16:52:07.819Z,6.13
2018-10-03T16:54:41.058Z,3.67
2018-10-03T16:57:11.178Z,3.47
2018-10-03T16:59:39.998Z,4.63
2018-10-03T17:02:08.843Z,2.93
2018-10-03T17:04:37.675Z,4.83
2018-10-03T17:07:06.748Z,5.00
2018-10-03T17:09:36.036Z,5.57
2018-10-03T17:12:06.827Z,3.57
2018-10-03T17:14:37.939Z,4.17
2018-10-03T17:17:07.136Z,4.70
2018-10-03T17:19:36.235Z,3.07
2018-10-03T17:22:05.217Z,3.27
2018-10-03T17:24:35.446Z,3.93
2018-10-03T17:27:04.294Z,3.17
2018-10-03T17:29:33.123Z,3.37
2018-10-03T17:32:01.953Z,3.93
2018-10-03T17:34:30.943Z,3.83
2018-10-03T17:37:00.303Z,3.07
2018-10-03T17:39:29.294Z,3.13
2018-10-03T17:42:01.247Z,6.03
2018-10-03T17:44:30.093Z,5.50
2018-10-03T17:46:59.038Z,4.17
2018-10-03T17:49:28.733Z,3.70
2018-10-03T17:51:58.015Z,4.20
2018-10-03T17:54:26.888Z,4.03
2018-10-03T17:56:56.810Z,2.07
2018-10-03T17:59:25.653Z,4.17
2018-10-03T18:01:56.347Z,3.70
2018-10-03T18:04:25.276Z,4.70
2018-10-03T18:06:54.261Z,4.47
2018-10-03T18:09:23.289Z,3.33
2018-10-03T18:11:53.662Z,5.07
2018-10-03T18:14:22.492Z,5.27
2018-10-03T18:16:51.710Z,3.80
2018-10-03T18:19:20.543Z,4.53
2018-10-03T18:21:50.009Z,3.87
2018-10-03T18:24:18.807Z,3.73
2018-10-03T18:26:47.662Z,2.87
2018-10-03T18:29:16.867Z,3.93
2018-10-03T18:31:45.739Z,2.93
2018-10-03T18:34:16.962Z,4.80
2018-10-03T18:36:45.783Z,3.37
2018-10-03T18:39:14.915Z,3.50
2018-10-03T18:41:44.163Z,4.73
2018-10-03T18:44:12.990Z,4.67
2018-10-03T18:46:41.921Z,5.83
2018-10-03T18:49:10.739Z,3.67
2018-10-03T18:51:39.606Z,5.10
2018-10-03T18:54:08.395Z,2.63
2018-10-03T18:56:37.421Z,3.77
2018-10-03T18:59:07.567Z,4.70
2018-10-03T19:01:36.800Z,6.37
2018-10-03T19:04:05.655Z,3.77
2018-10-03T19:06:34.484Z,4.20
2018-10-03T19:09:04.917Z,5.03
2018-10-03T19:11:35.642Z,3.27
2018-10-03T19:14:04.601Z,5.03
2018-10-03T19:16:33.439Z,3.17
2018-10-03T19:19:02.302Z,2.73
2018-10-03T19:21:31.211Z,4.60
2018-10-03T19:24:00.098Z,4.43
2018-10-03T19:26:31.357Z,3.73
2018-10-03T19:29:00.132Z,4.70
2018-10-03T19:31:28.975Z,2.87
2018-10-03T19:33:58.111Z,3.70
2018-10-03T19:36:27.006Z,5.03
2018-10-03T19:38:56.011Z,4.33
2018-10-03T19:41:24.855Z,3.37
2018-10-03T19:43:53.679Z,5.03
2018-10-03T19:46:22.580Z,3.57
2018-10-03T19:48:52.686Z,4.20
2018-10-03T19:51:22.268Z,4.57
2018-10-03T19:53:51.078Z,5.43
2018-10-03T19:56:19.983Z,4.47
2018-10-03T19:58:50.091Z,3.47
2018-10-03T20:01:18.910Z,4.23
2018-10-03T20:03:47.814Z,3.30
2018-10-03T20:06:16.670Z,3.97
2018-10-03T20:08:45.528Z,2.57
2018-10-03T20:11:16.590Z,3.77
2018-10-03T20:13:45.490Z,5.20
2018-10-03T20:16:15.794Z,5.10
2018-10-03T20:18:44.648Z,4.80
2018-10-03T20:21:13.507Z,5.07
2018-10-03T20:23:42.337Z,4.53
2018-10-03T20:26:11.164Z,4.13
2018-10-03T20:28:40.055Z,3.20
2018-10-03T20:31:08.948Z,3.57
2018-10-03T20:33:37.775Z,3.53
2018-10-03T20:37:31.136Z,5.50
2018-10-03T20:40:00.694Z,4.20
2018-10-03T20:42:29.781Z,3.47
2018-10-03T20:44:58.627Z,5.30
2018-10-03T20:47:27.446Z,5.10
2018-10-03T20:49:56.283Z,4.57
2018-10-03T20:52:26.196Z,3.27
2018-10-03T20:54:55.052Z,3.70
2018-10-03T20:57:25.040Z,3.83
2018-10-03T20:59:54.100Z,5.23
2018-10-03T21:02:22.930Z,5.03
2018-10-03T21:04:51.826Z,6.97
2018-10-03T21:07:20.731Z,5.33
2018-10-03T21:09:49.623Z,4.07
2018-10-03T21:12:21.091Z,3.20
2018-10-03T21:14:50.103Z,4.20
2018-10-03T21:17:19.103Z,2.30
2018-10-03T21:19:47.934Z,3.73
2018-10-03T21:22:16.794Z,4.00
2018-10-03T21:24:45.748Z,3.27
2018-10-03T21:27:14.600Z,6.77
2018-10-03T21:29:43.439Z,3.67
2018-10-03T21:32:12.292Z,2.37
2018-10-03T21:34:41.922Z,6.23
2018-10-03T21:37:11.668Z,3.90
2018-10-03T21:39:40.783Z,5.63
2018-10-03T21:42:09.615Z,4.00
2018-10-03T21:44:38.447Z,4.23
2018-10-03T21:47:07.719Z,4.40
2018-10-03T21:49:36.635Z,5.20
2018-10-03T21:52:06.208Z,4.30
2018-10-03T21:54:35.050Z,5.60
2018-10-03T21:57:05.225Z,4.17
2018-10-03T21:59:34.137Z,4.53
2018-10-03T22:02:03.440Z,3.30
2018-10-03T22:04:34.250Z,3.60
2018-10-03T22:07:03.084Z,3.80
2018-10-03T22:09:31.896Z,5.73
2018-10-03T22:12:02.251Z,4.50
2018-10-03T22:14:31.070Z,3.67
2018-10-03T22:16:59.902Z,3.40
2018-10-03T22:19:28.766Z,4.77
2018-10-03T22:21:57.583Z,4.63
2018-10-03T22:24:26.494Z,5.87
2018-10-03T22:26:55.347Z,3.17
2018-10-03T22:29:24.518Z,5.63
2018-10-03T22:31:53.352Z,3.33
2018-10-03T22:34:22.222Z,4.20
2018-10-03T22:36:51.133Z,2.60
2018-10-03T22:39:19.968Z,3.40
2018-10-03T22:41:48.875Z,4.30
2018-10-03T22:44:17.698Z,4.33
2018-10-03T22:46:46.540Z,4.60
2018-10-03T22:49:15.499Z,4.83
2018-10-03T22:51:44.330Z,2.70
2018-10-03T22:54:13.244Z,3.83
2018-10-03T22:56:42.688Z,5.27
2018-10-03T22:59:13.013Z,4.67
2018-10-03T23:01:42.088Z,4.20
2018-10-03T23:04:12.224Z,4.63
2018-10-03T23:06:41.270Z,3.23
2018-10-03T23:09:10.119Z,3.13
2018-10-03T23:11:38.967Z,4.07
2018-10-03T23:14:08.869Z,5.33
2018-10-03T23:16:37.703Z,5.10
2018-10-03T23:19:06.539Z,4.20
2018-10-03T23:21:35.403Z,4.67
2018-10-03T23:24:04.235Z,4.00
2018-10-03T23:26:33.135Z,2.93
2018-10-03T23:29:02.768Z,4.27
2018-10-03T23:31:31.595Z,4.67
2018-10-03T23:34:00.436Z,4.07
2018-10-03T23:36:29.546Z,4.37
2018-10-03T23:38:59.483Z,2.97
2018-10-03T23:41:28.328Z,3.97
2018-10-03T23:43:57.203Z,4.13
2018-10-03T23:46:26.053Z,6.30
2018-10-03T23:48:54.878Z,3.33
2018-10-03T23:51:23.843Z,5.93
2018-10-03T23:53:54.540Z,3.10
2018-10-03T23:56:23.370Z,3.77
2018-10-03T23:58:52.934Z,3.50
